createdAt,value
2022-12-28T00:01:03.276Z,98
2022-12-28T00:02:10.388Z,98
2022-12-28T00:03:17.572Z,98
2022-12-28T00:05:31.733Z,98
2022-12-28T00:06:38.248Z,98
2022-12-28T00:07:45.533Z,98
2022-12-28T00:08:52.945Z,98
2022-12-28T00:09:59.635Z,98
2022-12-28T00:11:10.476Z,98
2022-12-28T00:12:13.265Z,98
2022-12-28T00:13:20.492Z,98
2022-12-28T00:14:27.598Z,98
2022-12-28T00:15:34.659Z,98
2022-12-28T00:16:41.896Z,98
2022-12-28T00:17:48.298Z,98
2022-12-28T00:18:55.405Z,98
2022-12-28T00:21:09.647Z,98
2022-12-28T00:22:16.678Z,98
2022-12-28T00:23:23.328Z,98
2022-12-28T00:24:30.441Z,98
2022-12-28T00:25:37.483Z,98
2022-12-28T00:26:44.690Z,98
2022-12-28T00:27:51.764Z,98
2022-12-28T00:29:03.548Z,98
2022-12-28T00:30:05.445Z,98
2022-12-28T00:31:12.613Z,98
2022-12-28T00:32:19.669Z,98
2022-12-28T00:33:26.695Z,98
2022-12-28T00:34:33.953Z,98
2022-12-28T00:35:40.484Z,98
2022-12-28T00:37:10.367Z,98
2022-12-28T00:37:54.667Z,98
2022-12-28T00:39:02.302Z,98
2022-12-28T00:40:08.334Z,98
2022-12-28T00:41:15.981Z,98
2022-12-28T00:42:22.552Z,98
2022-12-28T00:43:29.614Z,98
2022-12-28T00:44:36.788Z,99
2022-12-28T00:45:43.349Z,98
2022-12-28T00:46:50.620Z,98
2022-12-28T00:47:57.532Z,98
2022-12-28T00:49:04.633Z,98
2022-12-28T00:50:11.792Z,98
2022-12-28T00:51:18.341Z,98
2022-12-28T00:52:25.516Z,98
2022-12-28T00:53:32.593Z,98
2022-12-28T00:54:40.784Z,99
2022-12-28T00:55:46.847Z,98
2022-12-28T00:56:53.371Z,98
2022-12-28T00:58:00.484Z,98
2022-12-28T00:59:07.548Z,99
2022-12-28T01:00:14.764Z,98
2022-12-28T01:01:22.004Z,98
2022-12-28T01:02:28.442Z,100
2022-12-28T01:03:35.542Z,100
2022-12-28T01:04:42.621Z,100
2022-12-28T01:05:49.689Z,100
2022-12-28T01:06:56.850Z,100
2022-12-28T01:08:03.419Z,100
2022-12-28T01:09:10.491Z,100
2022-12-28T01:10:17.608Z,100
2022-12-28T01:11:24.757Z,100
2022-12-28T01:12:36.302Z,100
2022-12-28T01:13:38.378Z,100
2022-12-28T01:14:45.540Z,100
2022-12-28T01:15:52.719Z,100
2022-12-28T01:16:59.779Z,100
2022-12-28T01:18:06.787Z,100
2022-12-28T01:19:13.930Z,100
2022-12-28T01:20:20.011Z,100
2022-12-28T01:20:20.546Z,100
2022-12-28T01:21:27.641Z,100
2022-12-28T01:22:34.753Z,100
2022-12-28T01:24:48.347Z,100
2022-12-28T01:25:55.537Z,100
2022-12-28T01:27:02.699Z,100
2022-12-28T01:28:09.721Z,100
2022-12-28T01:29:16.341Z,100
2022-12-28T01:30:23.354Z,100
2022-12-28T01:31:30.636Z,100
2022-12-28T01:33:44.837Z,100
2022-12-28T01:34:51.362Z,100
2022-12-28T01:35:58.414Z,100
2022-12-28T01:37:05.571Z,100
2022-12-28T01:38:12.666Z,100
2022-12-28T01:39:19.747Z,100
2022-12-28T01:40:26.876Z,100
2022-12-28T01:41:33.463Z,100
2022-12-28T01:42:41.254Z,100
2022-12-28T01:43:47.684Z,100
2022-12-28T01:44:54.767Z,100
2022-12-28T01:46:01.829Z,100
2022-12-28T01:47:08.423Z,100
2022-12-28T01:48:15.568Z,100
2022-12-28T01:49:22.616Z,100
2022-12-28T01:50:29.774Z,99
2022-12-28T01:51:36.893Z,100
2022-12-28T01:52:43.473Z,100
2022-12-28T01:53:50.572Z,100
2022-12-28T01:54:57.599Z,99
2022-12-28T01:56:04.747Z,99
2022-12-28T01:57:11.910Z,99
2022-12-28T01:58:18.454Z,99
2022-12-28T01:59:25.575Z,99
2022-12-28T02:00:32.695Z,99
2022-12-28T02:01:39.896Z,99
2022-12-28T02:02:46.518Z,99
2022-12-28T02:03:53.511Z,99
2022-12-28T02:05:00.521Z,99
2022-12-28T02:06:07.609Z,99
2022-12-28T02:07:14.836Z,99
2022-12-28T02:08:22.032Z,99
2022-12-28T02:09:28.955Z,99
2022-12-28T02:10:40.430Z,99
2022-12-28T02:11:42.744Z,99
2022-12-28T02:12:49.868Z,99
2022-12-28T02:13:56.400Z,99
2022-12-28T02:15:03.512Z,99
2022-12-28T02:16:10.609Z,99
2022-12-28T02:17:17.728Z,99
2022-12-28T02:18:24.846Z,99
2022-12-28T02:19:31.384Z,99
2022-12-28T02:20:38.489Z,99
2022-12-28T02:21:45.607Z,99
2022-12-28T02:22:52.628Z,99
2022-12-28T02:23:59.780Z,99
2022-12-28T02:25:12.963Z,99
2022-12-28T02:26:13.511Z,99
2022-12-28T02:28:27.709Z,99
2022-12-28T02:29:34.775Z,99
2022-12-28T02:30:41.944Z,99
2022-12-28T02:31:48.520Z,99
2022-12-28T02:32:55.573Z,99
2022-12-28T02:34:02.686Z,99
2022-12-28T02:35:09.787Z,99
2022-12-28T02:36:18.548Z,99
2022-12-28T02:37:23.537Z,99
2022-12-28T02:38:30.620Z,99
2022-12-28T02:39:37.704Z,99
2022-12-28T02:40:44.857Z,99
2022-12-28T02:41:51.452Z,99
2022-12-28T02:42:58.459Z,99
2022-12-28T02:44:05.638Z,99
2022-12-28T02:45:12.861Z,99
2022-12-28T02:46:20.403Z,99
2022-12-28T02:47:26.435Z,99
2022-12-28T02:48:33.489Z,99
2022-12-28T02:49:40.601Z,99
2022-12-28T02:50:47.721Z,99
2022-12-28T02:51:54.911Z,99
2022-12-28T02:53:01.463Z,99
2022-12-28T02:54:08.529Z,99
2022-12-28T02:55:15.984Z,99
2022-12-28T02:56:22.754Z,99
2022-12-28T02:57:29.825Z,99
2022-12-28T02:58:36.455Z,99
2022-12-28T02:59:43.555Z,99
2022-12-28T03:01:58.274Z,99
2022-12-28T03:03:04.958Z,99
2022-12-28T03:04:11.442Z,99
2022-12-28T03:05:18.550Z,99
2022-12-28T03:06:30.208Z,99
2022-12-28T03:07:32.788Z,99
2022-12-28T03:08:39.864Z,99
2022-12-28T03:09:46.478Z,99
2022-12-28T03:10:53.669Z,98
2022-12-28T03:12:00.682Z,98
2022-12-28T03:13:07.768Z,98
2022-12-28T03:14:14.339Z,98
2022-12-28T03:15:21.460Z,98
2022-12-28T03:16:28.496Z,98
2022-12-28T03:17:35.658Z,98
2022-12-28T03:18:42.777Z,97
2022-12-28T03:19:49.807Z,97
2022-12-28T03:20:56.475Z,97
2022-12-28T03:22:03.763Z,96
2022-12-28T03:23:10.645Z,96
2022-12-28T03:24:17.728Z,96
2022-12-28T03:25:24.374Z,96
2022-12-28T03:26:31.488Z,96
2022-12-28T03:27:38.560Z,96
2022-12-28T03:28:45.663Z,95
2022-12-28T03:29:52.795Z,94
2022-12-28T03:32:06.508Z,94
2022-12-28T03:34:20.690Z,94
2022-12-28T03:35:27.791Z,94
2022-12-28T03:36:34.359Z,94
2022-12-28T03:37:42.019Z,93
2022-12-28T03:38:48.522Z,93
2022-12-28T03:39:56.242Z,93
2022-12-28T03:41:02.772Z,93
2022-12-28T03:42:09.433Z,93
2022-12-28T03:43:16.461Z,93
2022-12-28T03:44:23.587Z,93
2022-12-28T03:45:45.504Z,93
2022-12-28T03:46:37.772Z,93
2022-12-28T03:47:44.532Z,92
2022-12-28T03:48:51.511Z,93
2022-12-28T03:49:59.164Z,92
2022-12-28T03:51:05.705Z,92
2022-12-28T03:52:12.931Z,92
2022-12-28T03:53:19.398Z,92
2022-12-28T03:54:26.521Z,92
2022-12-28T03:55:33.636Z,92
2022-12-28T03:56:40.721Z,92
2022-12-28T03:57:47.755Z,92
2022-12-28T03:58:54.458Z,92
2022-12-28T04:00:01.589Z,91
2022-12-28T04:02:15.971Z,91
2022-12-28T04:03:22.866Z,91
2022-12-28T04:04:29.931Z,91
2022-12-28T04:05:36.540Z,90
2022-12-28T04:06:43.589Z,90
2022-12-28T04:07:50.802Z,90
2022-12-28T04:08:57.837Z,90
2022-12-28T04:10:04.386Z,90
2022-12-28T04:11:11.551Z,89
2022-12-28T04:12:18.620Z,89
2022-12-28T04:13:25.678Z,89
2022-12-28T04:14:32.853Z,89
2022-12-28T04:15:39.430Z,89
2022-12-28T04:16:46.593Z,89
2022-12-28T04:17:53.683Z,89
2022-12-28T04:19:00.802Z,89
2022-12-28T04:20:07.836Z,89
2022-12-28T04:21:14.420Z,89
2022-12-28T04:22:21.508Z,89
2022-12-28T04:23:28.582Z,89
2022-12-28T04:24:35.698Z,89
2022-12-28T04:25:42.845Z,89
2022-12-28T04:26:49.439Z,89
2022-12-28T04:27:56.522Z,89
2022-12-28T04:29:03.631Z,89
2022-12-28T04:30:11.014Z,89
2022-12-28T04:31:17.949Z,89
2022-12-28T04:32:24.484Z,89
2022-12-28T04:33:31.550Z,89
2022-12-28T04:35:46.250Z,89
2022-12-28T04:36:52.944Z,89
2022-12-28T04:37:59.482Z,89
2022-12-28T04:39:06.575Z,89
2022-12-28T04:40:13.651Z,89
2022-12-28T04:41:20.793Z,89
2022-12-28T04:42:27.855Z,89
2022-12-28T04:43:34.436Z,89
2022-12-28T04:44:41.564Z,89
2022-12-28T04:45:48.646Z,89
2022-12-28T04:46:55.948Z,89
2022-12-28T04:48:02.383Z,89
2022-12-28T04:49:09.453Z,89
2022-12-28T04:50:16.724Z,89
2022-12-28T04:51:23.720Z,89
2022-12-28T04:52:30.785Z,88
2022-12-28T04:53:37.838Z,88
2022-12-28T04:54:44.498Z,88
2022-12-28T04:55:51.519Z,88
2022-12-28T04:56:58.730Z,88
2022-12-28T04:58:05.773Z,88
2022-12-28T04:59:12.401Z,88
2022-12-28T05:00:19.465Z,88
2022-12-28T05:01:26.730Z,88
2022-12-28T05:02:33.831Z,88
2022-12-28T05:03:41.279Z,88
2022-12-28T05:04:47.376Z,88
2022-12-28T05:04:47.413Z,88
2022-12-28T05:05:54.994Z,88
2022-12-28T05:07:01.674Z,88
2022-12-28T05:08:08.738Z,88
2022-12-28T05:09:15.800Z,88
2022-12-28T05:10:22.372Z,88
2022-12-28T05:11:29.503Z,88
2022-12-28T05:12:36.747Z,87
2022-12-28T05:13:43.716Z,87
2022-12-28T05:14:50.853Z,87
2022-12-28T05:15:57.938Z,87
2022-12-28T05:17:04.579Z,87
2022-12-28T05:18:11.613Z,87
2022-12-28T05:19:18.661Z,87
2022-12-28T05:20:25.831Z,87
2022-12-28T05:21:32.428Z,87
2022-12-28T05:22:41.201Z,87
2022-12-28T05:23:46.627Z,87
2022-12-28T05:24:53.744Z,87
2022-12-28T05:26:00.823Z,87
2022-12-28T05:27:07.426Z,87
2022-12-28T05:28:14.506Z,87
2022-12-28T05:29:21.637Z,86
2022-12-28T05:30:28.714Z,86
2022-12-28T05:32:42.458Z,86
2022-12-28T05:33:49.512Z,86
2022-12-28T05:34:56.645Z,86
2022-12-28T05:36:03.750Z,86
2022-12-28T05:37:11.971Z,86
2022-12-28T05:39:24.559Z,86
2022-12-28T05:40:31.681Z,86
2022-12-28T05:41:38.751Z,86
2022-12-28T05:42:51.291Z,86
2022-12-28T05:43:52.465Z,86
2022-12-28T05:44:59.529Z,86
2022-12-28T05:46:06.591Z,86
2022-12-28T05:47:13.735Z,86
2022-12-28T05:48:20.870Z,86
2022-12-28T05:49:27.512Z,86
2022-12-28T05:50:34.577Z,86
2022-12-28T05:51:41.651Z,86
2022-12-28T05:52:48.825Z,86
2022-12-28T05:53:55.873Z,86
2022-12-28T05:55:02.465Z,86
2022-12-28T05:56:14.356Z,86
2022-12-28T05:58:23.781Z,86
2022-12-28T06:00:37.409Z,86
2022-12-28T06:01:44.796Z,86
2022-12-28T06:02:51.819Z,86
2022-12-28T06:03:58.762Z,86
2022-12-28T06:05:05.902Z,86
2022-12-28T06:06:12.481Z,86
2022-12-28T06:07:19.652Z,86
2022-12-28T06:08:26.672Z,86
2022-12-28T06:09:33.794Z,86
2022-12-28T06:10:40.430Z,86
2022-12-28T06:11:47.466Z,86
2022-12-28T06:12:54.709Z,86
2022-12-28T06:14:01.700Z,86
2022-12-28T06:15:08.813Z,86
2022-12-28T06:16:15.526Z,86
2022-12-28T06:17:22.552Z,86
2022-12-28T06:18:29.571Z,86
2022-12-28T06:19:36.692Z,85
2022-12-28T06:20:43.789Z,85
2022-12-28T06:21:50.387Z,85
2022-12-28T06:22:57.555Z,85
2022-12-28T06:24:04.546Z,85
2022-12-28T06:25:11.698Z,85
2022-12-28T06:26:18.760Z,85
2022-12-28T06:28:32.593Z,85
2022-12-28T06:29:39.619Z,85
2022-12-28T06:30:52.337Z,85
2022-12-28T06:31:53.951Z,85
2022-12-28T06:33:00.506Z,85
2022-12-28T06:34:08.544Z,85
2022-12-28T06:35:14.621Z,85
2022-12-28T06:36:21.870Z,85
2022-12-28T06:37:28.838Z,85
2022-12-28T06:38:35.451Z,85
2022-12-28T06:39:42.516Z,85
2022-12-28T06:41:12.143Z,86
2022-12-28T06:43:03.801Z,86
2022-12-28T06:44:10.446Z,86
2022-12-28T06:45:17.483Z,86
2022-12-28T06:46:24.656Z,86
2022-12-28T06:47:31.987Z,86
2022-12-28T06:48:38.809Z,86
2022-12-28T06:49:45.402Z,86
2022-12-28T06:50:52.527Z,86
2022-12-28T06:51:59.633Z,86
2022-12-28T06:53:06.681Z,86
2022-12-28T06:54:13.868Z,86
2022-12-28T06:55:20.400Z,86
2022-12-28T06:56:27.530Z,86
2022-12-28T06:57:34.736Z,86
2022-12-28T06:58:41.771Z,86
2022-12-28T06:59:48.839Z,86
2022-12-28T07:00:56.196Z,86
2022-12-28T07:02:03.292Z,86
2022-12-28T07:03:09.666Z,86
2022-12-28T07:04:16.707Z,86
2022-12-28T07:05:23.872Z,86
2022-12-28T07:06:30.454Z,86
2022-12-28T07:07:37.560Z,86
2022-12-28T07:08:44.693Z,87
2022-12-28T07:09:51.726Z,87
2022-12-28T07:10:58.837Z,87
2022-12-28T07:12:05.473Z,86
2022-12-28T07:13:12.630Z,87
2022-12-28T07:14:19.613Z,87
2022-12-28T07:15:26.767Z,87
2022-12-28T07:17:40.503Z,87
2022-12-28T07:18:47.564Z,87
2022-12-28T07:19:54.701Z,87
2022-12-28T07:21:01.840Z,87
2022-12-28T07:22:08.818Z,87
2022-12-28T07:23:15.510Z,87
2022-12-28T07:24:22.598Z,87
2022-12-28T07:26:36.812Z,87
2022-12-28T07:27:43.967Z,87
2022-12-28T07:28:50.481Z,87
2022-12-28T07:31:04.795Z,87
2022-12-28T07:32:11.877Z,87
2022-12-28T07:33:18.841Z,87
2022-12-28T07:34:25.469Z,87
2022-12-28T07:35:32.623Z,87
2022-12-28T07:36:39.700Z,87
2022-12-28T07:37:46.790Z,87
2022-12-28T07:38:53.847Z,87
2022-12-28T07:40:00.434Z,87
2022-12-28T07:41:07.534Z,87
2022-12-28T07:42:14.763Z,87
2022-12-28T07:43:21.818Z,87
2022-12-28T07:44:29.925Z,87
2022-12-28T07:45:35.571Z,87
2022-12-28T07:46:42.589Z,87
2022-12-28T07:47:49.681Z,87
2022-12-28T07:48:57.023Z,87
2022-12-28T07:51:10.579Z,87
2022-12-28T07:52:17.618Z,87
2022-12-28T07:53:24.724Z,87
2022-12-28T07:54:31.843Z,87
2022-12-28T07:55:41.712Z,87
2022-12-28T07:56:45.589Z,87
2022-12-28T07:58:59.842Z,87
2022-12-28T08:00:06.815Z,87
2022-12-28T08:01:14.256Z,88
2022-12-28T08:02:21.183Z,88
2022-12-28T08:03:27.642Z,88
2022-12-28T08:04:35.808Z,88
2022-12-28T08:05:41.870Z,88
2022-12-28T08:06:48.544Z,88
2022-12-28T08:07:59.806Z,88
2022-12-28T08:09:02.649Z,88
2022-12-28T08:10:09.707Z,88
2022-12-28T08:11:16.789Z,88
2022-12-28T08:12:23.378Z,88
2022-12-28T08:13:30.549Z,88
2022-12-28T08:14:40.691Z,88
2022-12-28T08:15:44.787Z,88
2022-12-28T08:16:51.880Z,88
2022-12-28T08:17:58.492Z,88
2022-12-28T08:19:05.519Z,88
2022-12-28T08:20:12.624Z,88
2022-12-28T08:21:19.737Z,88
2022-12-28T08:22:26.851Z,88
2022-12-28T08:23:33.426Z,88
2022-12-28T08:24:40.857Z,88
2022-12-28T08:26:54.969Z,88
2022-12-28T08:28:01.937Z,88
2022-12-28T08:29:08.417Z,88
2022-12-28T08:30:15.497Z,88
2022-12-28T08:32:29.822Z,88
2022-12-28T08:33:36.888Z,88
2022-12-28T08:34:43.517Z,88
2022-12-28T08:35:50.585Z,88
2022-12-28T08:36:57.625Z,88
2022-12-28T08:38:04.836Z,88
2022-12-28T08:39:11.917Z,88
2022-12-28T08:40:18.457Z,88
2022-12-28T08:41:25.520Z,88
2022-12-28T08:42:32.699Z,88
2022-12-28T08:43:39.720Z,88
2022-12-28T08:44:46.893Z,88
2022-12-28T08:45:53.717Z,88
2022-12-28T08:47:00.615Z,88
2022-12-28T08:48:07.744Z,88
2022-12-28T08:50:26.512Z,88
2022-12-28T08:51:28.459Z,88
2022-12-28T08:52:35.696Z,88
2022-12-28T08:53:42.667Z,88
2022-12-28T08:54:49.735Z,89
2022-12-28T08:56:02.803Z,89
2022-12-28T08:57:03.505Z,89
2022-12-28T08:58:10.582Z,89
2022-12-28T08:59:17.671Z,89
2022-12-28T09:00:25.333Z,89
2022-12-28T09:01:35.900Z,89
2022-12-28T09:02:38.669Z,89
2022-12-28T09:03:45.784Z,89
2022-12-28T09:04:52.724Z,89
2022-12-28T09:05:59.788Z,89
2022-12-28T09:07:06.890Z,89
2022-12-28T09:08:14.006Z,89
2022-12-28T09:09:20.628Z,89
2022-12-28T09:10:27.657Z,89
2022-12-28T09:11:34.880Z,89
2022-12-28T09:12:41.501Z,89
2022-12-28T09:12:41.920Z,89
2022-12-28T09:13:48.509Z,89
2022-12-28T09:14:55.108Z,89
2022-12-28T09:14:55.594Z,89
2022-12-28T09:16:02.759Z,89
2022-12-28T09:17:09.809Z,89
2022-12-28T09:18:16.949Z,89
2022-12-28T09:19:23.544Z,89
2022-12-28T09:20:30.612Z,89
2022-12-28T09:21:37.735Z,89
2022-12-28T09:22:44.815Z,89
2022-12-28T09:23:51.440Z,89
2022-12-28T09:24:58.533Z,89
2022-12-28T09:26:05.659Z,90
2022-12-28T09:27:12.724Z,90
2022-12-28T09:29:26.523Z,90
2022-12-28T09:30:34.054Z,90
2022-12-28T09:31:40.753Z,90
2022-12-28T09:32:47.744Z,90
2022-12-28T09:34:34.457Z,90
2022-12-28T09:35:02.006Z,90
2022-12-28T09:36:08.535Z,90
2022-12-28T09:37:15.676Z,90
2022-12-28T09:38:22.815Z,90
2022-12-28T09:39:29.944Z,90
2022-12-28T09:40:36.469Z,90
2022-12-28T09:41:43.555Z,90
2022-12-28T09:42:50.726Z,90
2022-12-28T09:43:57.699Z,90
2022-12-28T09:45:04.864Z,91
2022-12-28T09:46:11.451Z,90
2022-12-28T09:47:18.551Z,90
2022-12-28T09:48:25.681Z,90
2022-12-28T09:49:32.756Z,91
2022-12-28T09:50:39.846Z,90
2022-12-28T09:51:46.458Z,91
2022-12-28T09:52:53.633Z,91
2022-12-28T09:54:00.697Z,91
2022-12-28T09:55:07.741Z,91
2022-12-28T09:57:22.031Z,91
2022-12-28T09:58:28.586Z,91
2022-12-28T09:59:35.695Z,91
2022-12-28T10:00:42.778Z,91
2022-12-28T10:01:49.977Z,91
2022-12-28T10:02:56.574Z,91
2022-12-28T10:04:03.597Z,91
2022-12-28T10:05:10.695Z,91
2022-12-28T10:06:17.770Z,91
2022-12-28T10:07:24.950Z,91
2022-12-28T10:08:31.472Z,91
2022-12-28T10:09:38.591Z,91
2022-12-28T10:10:48.602Z,91
2022-12-28T10:12:59.940Z,91
2022-12-28T10:14:06.515Z,91
2022-12-28T10:15:13.641Z,91
2022-12-28T10:16:20.876Z,91
2022-12-28T10:17:27.751Z,91
2022-12-28T10:18:39.371Z,91
2022-12-28T10:19:41.771Z,91
2022-12-28T10:20:48.611Z,91
2022-12-28T10:23:02.878Z,91
2022-12-28T10:25:16.527Z,91
2022-12-28T10:26:23.648Z,91
2022-12-28T10:27:30.794Z,91
2022-12-28T10:28:37.908Z,91
2022-12-28T10:29:44.939Z,91
2022-12-28T10:30:51.540Z,91
2022-12-28T10:31:58.614Z,91
2022-12-28T10:33:06.999Z,91
2022-12-28T10:34:12.850Z,92
2022-12-28T10:35:19.913Z,92
2022-12-28T10:36:31.435Z,92
2022-12-28T10:37:33.612Z,92
2022-12-28T10:38:40.769Z,92
2022-12-28T10:39:47.773Z,92
2022-12-28T10:40:54.925Z,92
2022-12-28T10:42:01.552Z,92
2022-12-28T10:43:10.992Z,92
2022-12-28T10:44:38.399Z,92
2022-12-28T10:45:22.852Z,92
2022-12-28T10:46:29.958Z,92
2022-12-28T10:47:36.571Z,92
2022-12-28T10:48:43.650Z,92
2022-12-28T10:50:10.544Z,92
2022-12-28T10:50:57.849Z,92
2022-12-28T10:52:04.973Z,92
2022-12-28T10:53:11.549Z,92
2022-12-28T10:54:27.691Z,92
2022-12-28T10:55:25.776Z,92
2022-12-28T10:56:33.071Z,92
2022-12-28T10:58:02.961Z,92
2022-12-28T10:58:47.028Z,92
2022-12-28T10:59:53.628Z,92
2022-12-28T11:01:00.963Z,92
2022-12-28T11:02:08.002Z,92
2022-12-28T11:03:14.617Z,92
2022-12-28T11:04:21.567Z,92
2022-12-28T11:05:28.603Z,92
2022-12-28T11:06:35.743Z,92
2022-12-28T11:07:42.841Z,92
2022-12-28T11:08:49.927Z,92
2022-12-28T11:09:56.594Z,92
2022-12-28T11:11:03.694Z,92
2022-12-28T11:12:10.794Z,92
2022-12-28T11:13:21.820Z,92
2022-12-28T11:14:24.519Z,92
2022-12-28T11:17:45.859Z,93
2022-12-28T11:18:52.897Z,93
2022-12-28T11:19:59.458Z,93
2022-12-28T11:21:06.610Z,93
2022-12-28T11:22:13.711Z,93
2022-12-28T11:23:20.870Z,93
2022-12-28T11:24:27.845Z,93
2022-12-28T11:25:34.510Z,93
2022-12-28T11:27:48.700Z,93
2022-12-28T11:28:55.847Z,93
2022-12-28T11:30:02.926Z,93
2022-12-28T11:31:10.079Z,93
2022-12-28T11:32:16.561Z,93
2022-12-28T11:33:23.715Z,93
2022-12-28T11:34:30.892Z,93
2022-12-28T11:35:37.908Z,96
2022-12-28T11:36:44.463Z,93
2022-12-28T11:37:51.582Z,96
2022-12-28T11:38:58.647Z,93
2022-12-28T11:40:05.888Z,93
2022-12-28T11:41:12.910Z,93
2022-12-28T11:42:38.363Z,93
2022-12-28T11:43:26.547Z,93
2022-12-28T11:44:33.699Z,93
2022-12-28T11:45:40.899Z,96
2022-12-28T11:46:47.909Z,93
2022-12-28T11:47:54.494Z,96
2022-12-28T11:49:01.639Z,96
2022-12-28T11:50:08.712Z,96
2022-12-28T11:51:15.912Z,93
2022-12-28T11:52:22.942Z,93
2022-12-28T11:53:29.981Z,93
2022-12-28T11:55:43.708Z,96
2022-12-28T11:56:50.889Z,96
2022-12-28T11:59:04.582Z,93
2022-12-28T12:00:15.799Z,96
2022-12-28T12:01:18.768Z,93
2022-12-28T12:02:25.937Z,93
2022-12-28T12:03:32.983Z,93
2022-12-28T12:04:40.925Z,92
2022-12-28T12:05:46.628Z,93
2022-12-28T12:06:53.757Z,93
2022-12-28T12:08:00.872Z,92
2022-12-28T12:09:07.900Z,92
2022-12-28T12:10:14.725Z,92
2022-12-28T12:11:21.657Z,92
2022-12-28T12:12:28.717Z,92
2022-12-28T12:13:35.951Z,92
2022-12-28T12:14:42.923Z,92
2022-12-28T12:15:49.560Z,92
2022-12-28T12:16:56.722Z,92
2022-12-28T12:18:03.797Z,92
2022-12-28T12:20:17.977Z,92
2022-12-28T12:21:24.562Z,92
2022-12-28T12:23:38.768Z,92
2022-12-28T12:24:45.882Z,92
2022-12-28T12:25:52.926Z,92
2022-12-28T12:28:06.673Z,92
2022-12-28T12:29:13.817Z,92
2022-12-28T12:30:20.864Z,92
2022-12-28T12:31:27.990Z,92
2022-12-28T12:32:34.653Z,92
2022-12-28T12:33:41.705Z,92
2022-12-28T12:34:48.795Z,92
2022-12-28T12:35:55.863Z,92
2022-12-28T12:37:02.987Z,92
2022-12-28T12:38:09.616Z,92
2022-12-28T12:39:16.633Z,92
2022-12-28T12:40:23.812Z,92
2022-12-28T12:41:30.874Z,92
2022-12-28T12:42:38.029Z,91
2022-12-28T12:43:44.570Z,92
2022-12-28T12:44:51.704Z,91
2022-12-28T12:45:58.801Z,91
2022-12-28T12:47:06.335Z,91
2022-12-28T12:48:13.070Z,91
2022-12-28T12:49:19.572Z,91
2022-12-28T12:50:26.690Z,91
2022-12-28T12:51:33.813Z,91
2022-12-28T12:52:42.362Z,91
2022-12-28T12:53:48.882Z,91
2022-12-28T12:54:54.657Z,91
2022-12-28T12:56:01.688Z,91
2022-12-28T12:57:08.800Z,91
2022-12-28T12:58:15.944Z,91
2022-12-28T12:59:23.120Z,91
2022-12-28T13:00:29.580Z,91
2022-12-28T13:01:36.855Z,91
2022-12-28T13:02:43.930Z,91
2022-12-28T13:03:50.964Z,91
2022-12-28T13:04:57.981Z,91
2022-12-28T13:06:04.667Z,91
2022-12-28T13:07:11.721Z,91
2022-12-28T13:08:18.813Z,91
2022-12-28T13:09:25.930Z,91
2022-12-28T13:10:32.544Z,91
2022-12-28T13:11:39.606Z,91
2022-12-28T13:12:46.751Z,91
2022-12-28T13:13:53.829Z,91
2022-12-28T13:15:00.907Z,91
2022-12-28T13:16:07.501Z,91
2022-12-28T13:17:14.605Z,91
2022-12-28T13:18:45.013Z,91
2022-12-28T13:19:28.832Z,91
2022-12-28T13:20:35.965Z,91
2022-12-28T13:21:42.574Z,91
2022-12-28T13:23:56.741Z,91
2022-12-28T13:25:03.831Z,91
2022-12-28T13:26:10.992Z,91
2022-12-28T13:27:18.031Z,91
2022-12-28T13:28:24.699Z,91
2022-12-28T13:29:31.723Z,91
2022-12-28T13:30:38.911Z,91
2022-12-28T13:31:45.967Z,91
2022-12-28T13:32:52.620Z,91
2022-12-28T13:33:59.620Z,91
2022-12-28T13:35:06.752Z,91
2022-12-28T13:36:13.998Z,91
2022-12-28T13:37:21.010Z,91
2022-12-28T13:38:27.696Z,90
2022-12-28T13:39:41.492Z,91
2022-12-28T13:40:41.794Z,90
2022-12-28T13:41:48.874Z,90
2022-12-28T13:42:56.044Z,90
2022-12-28T13:44:02.593Z,90
2022-12-28T13:45:09.618Z,90
2022-12-28T13:46:16.810Z,90
2022-12-28T13:47:24.034Z,90
2022-12-28T13:48:31.007Z,90
2022-12-28T13:49:37.541Z,90
2022-12-28T13:50:44.661Z,90
2022-12-28T13:51:53.730Z,90
2022-12-28T13:52:58.918Z,90
2022-12-28T13:54:06.006Z,90
2022-12-28T13:56:19.705Z,90
2022-12-28T13:57:47.514Z,90
2022-12-28T13:58:33.848Z,90
2022-12-28T13:59:41.049Z,90
2022-12-28T14:00:47.564Z,90
2022-12-28T14:01:54.773Z,90
2022-12-28T14:03:01.858Z,90
2022-12-28T14:04:33.600Z,90
2022-12-28T14:05:16.055Z,90
2022-12-28T14:06:22.608Z,90
2022-12-28T14:07:29.661Z,90
2022-12-28T14:08:36.820Z,90
2022-12-28T14:09:43.922Z,90
2022-12-28T14:10:51.119Z,90
2022-12-28T14:11:57.554Z,90
2022-12-28T14:13:04.799Z,89
2022-12-28T14:14:11.867Z,89
2022-12-28T14:15:18.900Z,89
2022-12-28T14:16:26.106Z,89
2022-12-28T14:17:32.635Z,89
2022-12-28T14:18:39.721Z,89
2022-12-28T14:19:46.762Z,89
2022-12-28T14:20:53.951Z,89
2022-12-28T14:22:00.523Z,89
2022-12-28T14:23:07.594Z,89
2022-12-28T14:24:14.859Z,89
2022-12-28T14:25:22.001Z,89
2022-12-28T14:27:36.732Z,89
2022-12-28T14:28:42.694Z,89
2022-12-28T14:29:49.714Z,89
2022-12-28T14:30:56.871Z,89
2022-12-28T14:32:03.928Z,88
2022-12-28T14:33:15.233Z,89
2022-12-28T14:34:17.634Z,88
2022-12-28T14:35:24.763Z,88
2022-12-28T14:36:33.130Z,88
2022-12-28T14:37:38.937Z,89
2022-12-28T14:38:46.113Z,88
2022-12-28T14:39:52.645Z,88
2022-12-28T14:40:59.749Z,88
2022-12-28T14:42:06.832Z,88
2022-12-28T14:44:20.561Z,88
2022-12-28T14:45:27.624Z,88
2022-12-28T14:46:34.789Z,88
2022-12-28T14:47:41.882Z,88
2022-12-28T14:48:48.947Z,88
2022-12-28T14:49:55.551Z,88
2022-12-28T14:51:02.685Z,88
2022-12-28T14:52:09.747Z,88
2022-12-28T14:53:16.857Z,88
2022-12-28T14:54:23.998Z,88
2022-12-28T14:55:30.512Z,88
2022-12-28T14:56:37.609Z,88
2022-12-28T14:57:44.791Z,88
2022-12-28T14:58:51.872Z,88
2022-12-28T14:59:58.925Z,88
2022-12-28T15:01:05.830Z,88
2022-12-28T15:02:13.707Z,88
2022-12-28T15:03:19.868Z,88
2022-12-28T15:04:26.879Z,88
2022-12-28T15:05:33.968Z,88
2022-12-28T15:06:40.549Z,88
2022-12-28T15:07:47.718Z,88
2022-12-28T15:08:54.752Z,88
2022-12-28T15:10:01.961Z,87
2022-12-28T15:11:09.016Z,87
2022-12-28T15:12:15.613Z,88
2022-12-28T15:13:22.658Z,87
2022-12-28T15:14:29.775Z,87
2022-12-28T15:15:36.900Z,80
2022-12-28T15:16:44.033Z,88
2022-12-28T15:17:50.691Z,87
2022-12-28T15:18:57.711Z,87
2022-12-28T15:20:04.893Z,87
2022-12-28T15:21:11.924Z,88
2022-12-28T15:22:18.983Z,87
2022-12-28T15:25:39.752Z,87
2022-12-28T15:26:46.849Z,87
2022-12-28T15:27:54.100Z,87
2022-12-28T15:29:00.567Z,88
2022-12-28T15:31:14.904Z,88
2022-12-28T15:32:21.929Z,87
2022-12-28T15:33:29.091Z,88
2022-12-28T15:34:35.638Z,88
2022-12-28T15:35:42.687Z,87
2022-12-28T15:36:49.823Z,87
2022-12-28T15:37:56.863Z,87
2022-12-28T15:39:03.999Z,87
2022-12-28T15:40:10.649Z,87
2022-12-28T15:41:17.712Z,87
2022-12-28T15:42:24.841Z,87
2022-12-28T15:43:32.020Z,87
2022-12-28T15:44:40.954Z,87
2022-12-28T15:45:45.647Z,87
2022-12-28T15:46:52.800Z,87
2022-12-28T15:47:59.827Z,87
2022-12-28T15:49:06.886Z,87
2022-12-28T15:50:14.028Z,87
2022-12-28T15:51:20.683Z,87
2022-12-28T15:52:27.734Z,87
2022-12-28T15:53:34.921Z,87
2022-12-28T15:54:46.898Z,87
2022-12-28T15:55:48.999Z,87
2022-12-28T15:56:55.639Z,87
2022-12-28T15:58:02.826Z,87
2022-12-28T15:59:09.789Z,86
2022-12-28T16:00:17.056Z,86
2022-12-28T16:01:24.211Z,86
2022-12-28T16:02:31.480Z,86
2022-12-28T16:03:37.752Z,86
2022-12-28T16:04:44.886Z,86
2022-12-28T16:06:58.484Z,86
2022-12-28T16:08:05.720Z,86
2022-12-28T16:09:12.811Z,86
2022-12-28T16:10:19.871Z,86
2022-12-28T16:11:26.951Z,86
2022-12-28T16:12:34.037Z,86
2022-12-28T16:13:40.704Z,86
2022-12-28T16:14:47.835Z,86
2022-12-28T16:15:54.965Z,86
2022-12-28T16:17:01.980Z,86
2022-12-28T16:18:08.534Z,86
2022-12-28T16:19:15.639Z,86
2022-12-28T16:20:22.745Z,86
2022-12-28T16:21:29.820Z,86
2022-12-28T16:22:36.989Z,86
2022-12-28T16:23:43.665Z,86
2022-12-28T16:24:50.718Z,86
2022-12-28T16:25:57.761Z,86
2022-12-28T16:27:04.866Z,86
2022-12-28T16:28:11.962Z,86
2022-12-28T16:29:18.649Z,86
2022-12-28T16:30:25.652Z,86
2022-12-28T16:31:32.852Z,86
2022-12-28T16:32:39.895Z,86
2022-12-28T16:34:54.157Z,86
2022-12-28T16:36:00.676Z,86
2022-12-28T16:37:07.850Z,86
2022-12-28T16:38:14.889Z,86
2022-12-28T16:39:22.047Z,86
2022-12-28T16:40:28.631Z,86